Time;durP1;ratioP1;P1;durP2;ratioP2;P2;SDS_P1;SDS_P2;PMS_P1;PMS_P2;Temp;Humidity;BMP_temperature;BMP_pressure;BME280_temperature;BME280_humidity;BME280_pressure;Samples;Min_cycle;Max_cycle;Signal;HPM_P1;HPM_P2
2021/07/28 00:00:18;;;;;;;5.35;3.38;;;;;;;23.17;58.90;100940.44;5012782;28;20018;-58
2021/07/28 00:02:43;;;;;;;4.60;3.20;;;;;;;23.17;59.09;100940.44;5013107;28;20422;-58
2021/07/28 00:05:11;;;;;;;4.68;3.03;;;;;;;23.17;59.21;100935.13;5012205;28;20017;-58
2021/07/28 00:07:36;;;;;;;6.57;3.40;;;;;;;23.16;59.19;100936.13;5012165;28;20029;-59
2021/07/28 00:10:03;;;;;;;4.93;2.95;;;;;;;23.15;59.33;100934.44;5013086;28;20378;-58
2021/07/28 00:12:28;;;;;;;5.88;3.55;;;;;;;23.16;58.92;100927.28;5011843;28;20026;-58
2021/07/28 00:14:54;;;;;;;5.30;3.00;;;;;;;23.15;58.91;100928.31;5012808;28;20481;-58
2021/07/28 00:17:19;;;;;;;5.10;3.30;;;;;;;23.14;58.80;100921.31;5012486;28;20030;-58
2021/07/28 00:20:01;;;;;;;4.88;2.85;;;;;;;23.12;59.18;100916.16;5011882;28;20272;-58
2021/07/28 00:25:11;;;;;;;4.70;3.10;;;;;;;23.11;59.12;100913.66;5011970;28;20171;-58
2021/07/28 00:27:37;;;;;;;4.88;3.13;;;;;;;23.12;59.07;100915.31;5012269;28;20108;-57
2021/07/28 00:30:09;;;;;;;5.47;3.22;;;;;;;23.12;58.77;100915.31;5012402;28;20038;-58
2021/07/28 00:32:35;;;;;;;4.63;3.25;;;;;;;23.10;59.08;100907.50;5011540;28;20053;-58
2021/07/28 00:35:00;;;;;;;5.50;2.97;;;;;;;23.08;59.04;100898.88;5012801;28;20053;-58
2021/07/28 00:37:28;;;;;;;5.20;3.10;;;;;;;23.10;58.83;100902.19;5012015;28;20026;-57
2021/07/28 00:39:53;;;;;;;4.78;3.00;;;;;;;23.10;59.11;100898.72;5011598;28;20279;-58
2021/07/28 00:42:21;;;;;;;4.85;3.20;;;;;;;23.09;58.66;100899.69;5012087;28;20041;-58
2021/07/28 00:44:46;;;;;;;5.53;2.90;;;;;;;23.09;58.64;100894.38;5012196;28;20022;-58
2021/07/28 00:47:15;;;;;;;4.55;3.00;;;;;;;23.10;58.62;100906.69;5011483;28;20033;-58
2021/07/28 00:49:41;;;;;;;4.65;3.00;;;;;;;23.08;58.73;100890.88;5012417;28;20076;-58
2021/07/28 00:52:07;;;;;;;5.25;2.78;;;;;;;23.06;58.83;100895.47;5012004;28;20042;-58
2021/07/28 00:54:32;;;;;;;4.47;2.80;;;;;;;23.08;58.92;100890.03;5011262;28;20033;-57
2021/07/28 00:56:58;;;;;;;4.93;2.75;;;;;;;23.02;58.69;100886.16;5012176;28;20029;-58
2021/07/28 00:59:24;;;;;;;4.57;2.88;;;;;;;23.06;58.91;100890.16;5011752;28;20141;-58
2021/07/28 01:01:54;;;;;;;4.20;2.67;;;;;;;23.06;58.71;100889.34;5011546;28;20032;-58
2021/07/28 01:04:19;;;;;;;4.68;2.80;;;;;;;23.04;58.81;100878.84;5011989;28;20378;-58
2021/07/28 01:06:45;;;;;;;4.90;2.90;;;;;;;23.05;58.41;100883.19;5011529;28;20029;-59
2021/07/28 01:09:10;;;;;;;4.60;2.90;;;;;;;23.04;58.52;100884.16;5012277;28;20040;-57
2021/07/28 01:11:36;;;;;;;4.43;2.83;;;;;;;23.05;58.69;100879.69;5011786;28;20026;-58
2021/07/28 01:14:04;;;;;;;4.90;2.85;;;;;;;23.04;58.70;100881.50;5010860;28;20357;-58
2021/07/28 01:16:36;;;;;;;5.40;2.67;;;;;;;23.05;58.52;100874.38;5011933;28;20407;-58
2021/07/28 01:19:07;;;;;;;4.68;3.00;;;;;;;23.00;58.57;100873.03;5012030;28;20045;-58
2021/07/28 01:21:36;;;;;;;4.70;2.95;;;;;;;23.02;58.38;100870.22;5011163;28;20037;-57
2021/07/28 01:24:02;;;;;;;4.90;2.70;;;;;;;23.02;58.51;100867.56;5011963;28;20151;-58
2021/07/28 01:26:29;;;;;;;5.20;3.03;;;;;;;23.01;58.78;100861.38;5011136;28;20125;-57
2021/07/28 01:28:54;;;;;;;5.25;2.80;;;;;;;22.99;58.60;100863.38;5011272;28;20585;-58
2021/07/28 01:31:22;;;;;;;4.22;2.80;;;;;;;22.98;58.28;100861.69;5011643;28;20116;-59
2021/07/28 01:33:48;;;;;;;4.10;2.88;;;;;;;23.00;58.64;100865.06;5012057;28;20108;-59
2021/07/28 01:36:14;;;;;;;4.30;2.35;;;;;;;22.98;58.65;100858.22;5011311;28;20026;-58
2021/07/28 01:38:40;;;;;;;4.40;2.60;;;;;;;22.97;58.29;100854.72;5011810;28;20029;-58
2021/07/28 01:41:06;;;;;;;5.28;3.10;;;;;;;22.99;58.42;100860.72;5012420;28;20025;-58
2021/07/28 01:43:33;;;;;;;5.18;3.00;;;;;;;22.98;58.47;100859.03;5011163;28;20403;-58
2021/07/28 01:45:59;;;;;;;4.43;2.75;;;;;;;22.98;58.38;100864.34;5012474;28;20025;-58
2021/07/28 01:48:25;;;;;;;5.45;3.00;;;;;;;22.98;58.22;100868.84;5013062;28;20382;-59
2021/07/28 01:50:51;;;;;;;4.82;2.70;;;;;;;22.94;58.47;100855.03;5014708;28;20057;-59
2021/07/28 01:53:17;;;;;;;4.22;2.60;;;;;;;22.98;58.39;100864.34;5014975;28;20109;-57
2021/07/28 01:55:43;;;;;;;5.40;2.90;;;;;;;22.96;58.59;100857.53;5015071;28;20022;-58
2021/07/28 01:58:10;;;;;;;5.82;3.08;;;;;;;22.95;58.23;100858.53;5014475;28;20033;-57
2021/07/28 02:00:36;;;;;;;4.55;2.65;;;;;;;22.96;58.09;100857.53;5013539;28;20049;-58
2021/07/28 02:03:04;;;;;;;4.30;2.38;;;;;;;22.95;58.31;100858.53;5014178;28;20064;-57
2021/07/28 02:05:37;;;;;;;5.10;2.80;;;;;;;22.95;58.44;100858.53;5014773;28;20029;-58
2021/07/28 02:08:05;;;;;;;5.55;2.97;;;;;;;22.94;58.36;100860.38;5014875;28;20034;-57
2021/07/28 02:10:33;;;;;;;4.75;2.80;;;;;;;22.93;58.31;100857.84;5013944;28;20466;-58
2021/07/28 02:13:00;;;;;;;4.85;3.05;;;;;;;22.94;58.00;100859.50;5014684;28;20120;-57
2021/07/28 02:15:26;;;;;;;4.97;2.80;;;;;;;22.92;58.06;100853.53;5014778;28;20515;-58
2021/07/28 02:17:52;;;;;;;5.40;2.90;;;;;;;22.92;58.46;100850.88;5014095;28;20057;-59
2021/07/28 02:20:18;;;;;;;4.43;2.90;;;;;;;22.91;58.11;100852.69;5014391;28;20493;-59
2021/07/28 02:22:44;;;;;;;4.32;2.70;;;;;;;22.92;57.99;100849.06;5014454;28;20164;-58
2021/07/28 02:25:10;;;;;;;4.95;2.80;;;;;;;22.92;58.15;100843.75;5014102;28;20025;-58
2021/07/28 02:27:36;;;;;;;4.88;2.88;;;;;;;22.91;58.31;100838.59;5014418;28;20026;-59
2021/07/28 02:30:01;;;;;;;5.65;3.30;;;;;;;22.92;57.96;100848.22;5014295;28;20508;-58
2021/07/28 02:32:27;;;;;;;5.37;2.90;;;;;;;22.91;58.04;100841.25;5013378;28;20113;-59
2021/07/28 02:34:52;;;;;;;4.35;2.88;;;;;;;22.91;58.18;100841.25;5013594;28;20266;-59
2021/07/28 02:37:18;;;;;;;4.85;2.70;;;;;;;22.91;58.29;100839.41;5013975;28;20060;-58
2021/07/28 02:39:43;;;;;;;4.70;2.60;;;;;;;22.91;58.19;100841.25;5013780;28;20045;-58
2021/07/28 02:42:11;;;;;;;4.73;2.83;;;;;;;22.88;57.93;100845.03;5014463;28;20740;-58
2021/07/28 02:44:36;;;;;;;5.57;3.28;;;;;;;22.89;58.00;100837.88;5014127;28;20271;-58
2021/07/28 02:47:01;;;;;;;5.10;3.03;;;;;;;22.89;57.84;100843.19;5013498;28;20105;-58
2021/07/28 02:49:30;;;;;;;4.40;2.60;;;;;;;22.89;58.07;100840.53;5013824;28;20278;-58
2021/07/28 02:51:55;;;;;;;5.80;2.95;;;;;;;22.89;58.14;100841.41;5013442;28;20041;-58
2021/07/28 02:54:22;;;;;;;4.90;2.88;;;;;;;22.88;57.86;100839.72;5012743;28;20355;-58
2021/07/28 02:56:48;;;;;;;5.05;2.90;;;;;;;22.87;57.72;100832.72;5013539;28;20445;-59
2021/07/28 02:59:13;;;;;;;4.88;3.03;;;;;;;22.88;57.89;100841.56;5012293;28;20057;-58
2021/07/28 03:01:38;;;;;;;5.23;2.90;;;;;;;22.87;58.06;100831.91;5013158;28;20061;-57
2021/07/28 03:04:04;;;;;;;4.33;2.63;;;;;;;22.87;57.93;100843.34;5013818;28;20025;-59
2021/07/28 03:06:29;;;;;;;5.38;3.03;;;;;;;22.86;58.00;100844.38;5012781;28;20663;-58
2021/07/28 03:08:57;;;;;;;4.57;3.03;;;;;;;22.85;58.08;100844.53;5013673;28;20034;-58
2021/07/28 03:11:22;;;;;;;4.10;2.70;;;;;;;22.86;57.95;100844.38;5013666;28;20284;-58
2021/07/28 03:13:48;;;;;;;4.18;2.63;;;;;;;22.84;57.82;100838.34;5013198;28;20436;-58
2021/07/28 03:16:13;;;;;;;5.32;3.00;;;;;;;22.85;57.87;100844.53;5013722;28;20089;-58
2021/07/28 03:18:39;;;;;;;5.83;2.77;;;;;;;22.86;57.69;100843.50;5013345;28;20026;-58
2021/07/28 03:21:04;;;;;;;5.22;2.90;;;;;;;22.84;57.85;100838.34;5013280;28;20805;-59
2021/07/28 03:23:33;;;;;;;4.60;2.70;;;;;;;22.85;57.78;100834.72;5013555;28;20398;-58
2021/07/28 03:25:59;;;;;;;4.30;2.72;;;;;;;22.84;57.91;100835.69;5013688;28;20022;-58
2021/07/28 03:28:24;;;;;;;4.82;2.65;;;;;;;22.83;57.96;100836.72;5012591;28;20032;-58
2021/07/28 03:30:49;;;;;;;4.65;3.00;;;;;;;22.85;57.92;100844.53;5013432;28;20033;-58
2021/07/28 03:33:18;;;;;;;4.45;2.90;;;;;;;22.83;58.19;100834.06;5013312;28;20119;-58
2021/07/28 03:35:44;;;;;;;5.70;2.95;;;;;;;22.84;57.88;100843.66;5012833;28;20109;-58
2021/07/28 03:38:13;;;;;;;4.20;2.63;;;;;;;22.82;57.97;100846.47;5013501;28;20116;-58
2021/07/28 03:40:41;;;;;;;4.88;2.95;;;;;;;22.83;57.71;100847.34;5013007;28;20113;-57
2021/07/28 03:43:07;;;;;;;5.05;2.75;;;;;;;22.83;57.98;100852.66;5012473;28;20537;-58
2021/07/28 03:45:32;;;;;;;4.72;2.70;;;;;;;22.82;57.83;100853.63;5012598;28;20153;-58
2021/07/28 03:47:57;;;;;;;4.80;2.60;;;;;;;22.82;57.96;100853.63;5013114;28;20018;-58
2021/07/28 03:50:23;;;;;;;5.55;2.70;;;;;;;22.81;58.01;100839.53;5012078;28;20060;-58
2021/07/28 03:52:51;;;;;;;5.75;2.95;;;;;;;22.81;57.77;100846.63;5013053;28;20115;-57
2021/07/28 03:55:19;;;;;;;5.88;2.85;;;;;;;22.81;57.79;100839.53;5012884;28;20060;-58
2021/07/28 03:57:44;;;;;;;5.10;2.65;;;;;;;22.81;58.09;100836.88;5012312;28;20030;-58
2021/07/28 04:00:10;;;;;;;4.80;3.10;;;;;;;22.79;58.09;100841.47;5012836;28;20125;-58
2021/07/28 04:02:35;;;;;;;4.57;2.88;;;;;;;22.78;57.80;100837.16;5012108;28;20287;-57
2021/07/28 04:05:02;;;;;;;4.87;3.20;;;;;;;22.78;57.99;100836.31;5013066;28;20041;-58
2021/07/28 04:07:33;;;;;;;4.95;2.95;;;;;;;22.78;58.27;100838.97;5012488;28;20675;-58
2021/07/28 04:09:58;;;;;;;5.07;3.03;;;;;;;22.77;57.84;100835.50;5011975;28;20339;-59
2021/07/28 04:12:24;;;;;;;5.20;3.00;;;;;;;22.78;57.76;100838.97;5012230;28;20038;-58
2021/07/28 04:14:49;;;;;;;4.95;3.10;;;;;;;22.78;57.94;100839.81;5012716;28;20279;-58
2021/07/28 04:17:14;;;;;;;4.15;2.58;;;;;;;22.78;57.89;100839.81;5011486;28;20029;-59
2021/07/28 04:19:43;;;;;;;4.50;2.60;;;;;;;22.77;58.22;100835.50;5012612;28;20068;-59
2021/07/28 04:22:08;;;;;;;5.68;2.80;;;;;;;22.79;57.76;100830.03;5012819;28;20025;-58
2021/07/28 04:24:34;;;;;;;4.90;2.80;;;;;;;22.78;57.88;100837.16;5011499;28;20025;-58
2021/07/28 04:26:59;;;;;;;4.70;2.80;;;;;;;22.77;58.20;100837.31;5012754;28;20030;-58
2021/07/28 04:29:24;;;;;;;4.35;2.78;;;;;;;22.77;58.12;100832.00;5012312;28;20826;-58
2021/07/28 04:31:49;;;;;;;4.97;2.90;;;;;;;22.76;58.10;100828.50;5011756;28;20025;-58
2021/07/28 04:34:15;;;;;;;5.17;3.17;;;;;;;22.77;58.35;100834.66;5012506;28;20821;-59
2021/07/28 04:36:41;;;;;;;5.18;2.90;;;;;;;22.77;57.96;100832.00;5012686;28;20759;-59
2021/07/28 04:39:09;;;;;;;4.47;2.58;;;;;;;22.76;58.23;100833.81;5012013;28;20477;-58
2021/07/28 04:41:34;;;;;;;5.10;3.38;;;;;;;22.76;58.21;100831.16;5012313;28;20033;-58
2021/07/28 04:44:05;;;;;;;6.13;2.92;;;;;;;22.76;58.41;100825.84;5012265;28;20125;-59
2021/07/28 04:46:30;;;;;;;4.88;3.03;;;;;;;22.76;58.27;100827.69;5011428;28;20036;-59
2021/07/28 04:48:56;;;;;;;5.30;3.10;;;;;;;22.69;58.33;100830.13;5014229;28;20443;-58
2021/07/28 04:51:21;;;;;;;5.20;3.00;;;;;;;22.77;58.21;100838.16;5012584;28;20294;-58
2021/07/28 04:53:46;;;;;;;5.47;2.72;;;;;;;22.76;58.29;100840.97;5011788;28;20275;-58
2021/07/28 04:56:12;;;;;;;4.88;2.90;;;;;;;22.75;58.23;100840.13;5013495;28;20026;-58
2021/07/28 04:58:38;;;;;;;5.07;2.83;;;;;;;22.76;58.30;100840.97;5013215;28;20501;-58
2021/07/28 05:01:03;;;;;;;5.60;2.85;;;;;;;22.75;58.35;100839.31;5013430;28;20037;-58
2021/07/28 05:03:28;;;;;;;5.68;3.30;;;;;;;22.75;58.39;100844.63;5013697;28;20105;-59
2021/07/28 05:05:54;;;;;;;4.73;2.83;;;;;;;22.72;58.25;100837.78;5013024;28;20029;-58
2021/07/28 05:08:19;;;;;;;5.15;3.20;;;;;;;22.72;58.45;100840.44;5012218;28;20278;-58
2021/07/28 05:10:47;;;;;;;4.60;2.87;;;;;;;22.75;58.38;100842.78;5012145;28;20482;-59
2021/07/28 05:13:13;;;;;;;4.43;2.80;;;;;;;22.73;58.04;100844.78;5011349;28;20370;-58
2021/07/28 05:15:38;;;;;;;5.17;3.30;;;;;;;22.73;58.08;100836.81;5011796;28;20109;-58
2021/07/28 05:18:03;;;;;;;4.80;3.10;;;;;;;22.74;58.16;100841.13;5012144;28;20632;-59
2021/07/28 05:20:28;;;;;;;5.00;3.10;;;;;;;22.73;58.37;100842.13;5011086;28;20045;-58
2021/07/28 05:22:54;;;;;;;4.85;3.22;;;;;;;22.74;57.98;100838.47;5012470;28;20034;-58
2021/07/28 05:25:22;;;;;;;4.85;2.95;;;;;;;22.74;58.44;100838.47;5015561;28;20054;-57
2021/07/28 05:27:47;;;;;;;4.80;2.75;;;;;;;22.73;58.47;100850.09;5014885;28;20502;-57
2021/07/28 05:30:14;;;;;;;5.07;2.83;;;;;;;22.73;58.35;100839.47;5015581;28;20121;-58
2021/07/28 05:32:39;;;;;;;4.78;3.15;;;;;;;22.73;58.33;100843.94;5015485;28;20731;-58
2021/07/28 05:35:05;;;;;;;5.13;3.08;;;;;;;22.74;58.58;100842.94;5015120;28;20084;-58
2021/07/28 05:37:30;;;;;;;4.53;3.00;;;;;;;22.71;58.37;100840.59;5015253;28;20056;-57
2021/07/28 05:39:55;;;;;;;5.75;3.00;;;;;;;22.73;58.52;100841.28;5015533;28;20022;-58
2021/07/28 05:42:21;;;;;;;4.87;2.90;;;;;;;22.73;58.39;100844.78;5014372;28;20113;-58
2021/07/28 05:44:46;;;;;;;5.60;2.85;;;;;;;22.74;58.20;100848.25;5015267;28;20779;-59
2021/07/28 05:47:14;;;;;;;4.53;2.83;;;;;;;22.73;58.18;100847.44;5015235;28;20026;-58
2021/07/28 05:49:39;;;;;;;5.05;2.70;;;;;;;22.74;58.45;100837.63;5014584;28;20116;-57
2021/07/28 05:52:05;;;;;;;4.63;2.87;;;;;;;22.73;58.54;100847.44;5014946;28;20532;-58
2021/07/28 05:54:30;;;;;;;4.25;2.83;;;;;;;22.71;58.25;100846.72;5014948;28;20290;-58
2021/07/28 05:56:55;;;;;;;5.55;2.90;;;;;;;22.74;58.19;100841.13;5014467;28;20021;-58
2021/07/28 05:59:22;;;;;;;4.97;2.88;;;;;;;22.74;58.46;100842.94;5014502;28;20050;-59
2021/07/28 06:01:47;;;;;;;6.57;3.00;;;;;;;22.74;58.24;100841.13;5015145;28;20052;-59
2021/07/28 06:04:13;;;;;;;4.70;2.92;;;;;;;22.74;58.69;100845.59;5014245;28;20022;-58
2021/07/28 06:06:38;;;;;;;5.22;3.10;;;;;;;22.74;58.38;100848.25;5014619;28;20030;-58
2021/07/28 06:09:03;;;;;;;4.65;2.80;;;;;;;22.74;58.23;100848.25;5014665;28;20026;-58
2021/07/28 06:11:29;;;;;;;4.70;2.80;;;;;;;22.73;58.57;100850.09;5014156;28;20458;-57
2021/07/28 06:13:54;;;;;;;5.13;2.77;;;;;;;22.73;58.52;100847.44;5014659;28;20274;-59
2021/07/28 06:16:20;;;;;;;5.20;2.72;;;;;;;22.74;58.44;100842.94;5013487;28;20329;-59
2021/07/28 06:18:45;;;;;;;5.30;2.85;;;;;;;22.74;58.73;100842.94;5014801;28;20065;-57
2021/07/28 06:21:10;;;;;;;4.82;3.10;;;;;;;22.74;58.67;100848.25;5014750;28;20053;-58
2021/07/28 06:23:36;;;;;;;5.20;3.17;;;;;;;22.72;58.38;100845.75;5013627;28;20030;-57
2021/07/28 06:26:04;;;;;;;4.77;2.63;;;;;;;22.74;58.32;100853.56;5014580;28;20474;-58
2021/07/28 06:28:29;;;;;;;4.40;2.70;;;;;;;22.73;58.38;100854.56;5014100;28;20271;-58
2021/07/28 06:30:55;;;;;;;4.82;2.90;;;;;;;22.73;58.62;100859.88;5013664;28;20187;-58
2021/07/28 06:33:22;;;;;;;5.05;2.70;;;;;;;22.70;58.71;100854.84;5014281;28;20018;-58
2021/07/28 06:35:51;;;;;;;6.45;2.92;;;;;;;22.72;58.27;100869.66;5014316;28;20030;-58
2021/07/28 06:38:18;;;;;;;4.97;3.05;;;;;;;22.72;58.44;100859.03;5013363;28;20041;-58
2021/07/28 06:40:43;;;;;;;5.30;2.90;;;;;;;22.73;58.59;100860.72;5014384;28;20109;-58
2021/07/28 06:43:09;;;;;;;5.20;3.10;;;;;;;22.73;58.80;100854.56;5014179;28;20112;-58
2021/07/28 06:45:35;;;;;;;5.10;2.78;;;;;;;22.75;58.83;100856.06;5013367;28;20084;-59
2021/07/28 06:48:03;;;;;;;5.25;2.97;;;;;;;22.76;58.73;100857.72;5014313;28;20026;-58
2021/07/28 06:50:29;;;;;;;4.28;2.58;;;;;;;22.78;58.75;100855.78;5013719;28;20049;-59
2021/07/28 06:52:57;;;;;;;4.78;2.95;;;;;;;22.78;59.01;100865.53;5013706;28;20038;-60
2021/07/28 06:55:22;;;;;;;4.80;2.90;;;;;;;22.78;59.15;100866.41;5014110;28;20080;-59
2021/07/28 06:57:48;;;;;;;4.70;2.70;;;;;;;22.76;58.81;100863.03;5014120;28;20026;-59
2021/07/28 07:00:14;;;;;;;5.47;2.88;;;;;;;22.81;58.79;100866.09;5013635;28;20029;-58
2021/07/28 07:02:39;;;;;;;5.55;2.97;;;;;;;22.81;58.80;100866.09;5014163;28;20062;-59
2021/07/28 07:05:05;;;;;;;4.53;2.72;;;;;;;22.83;58.88;100863.28;5014388;28;20113;-58
2021/07/28 07:07:30;;;;;;;5.32;2.92;;;;;;;22.87;58.93;100863.78;5013038;28;20377;-58
2021/07/28 07:09:55;;;;;;;4.65;2.63;;;;;;;22.89;59.02;100872.44;5014042;28;20018;-59
2021/07/28 07:12:21;;;;;;;4.47;2.83;;;;;;;22.90;59.00;100860.81;5013730;28;20136;-59
2021/07/28 07:14:50;;;;;;;7.22;2.88;;;;;;;22.91;58.73;100867.81;5013605;28;20022;-59
2021/07/28 07:17:15;;;;;;;5.75;2.72;;;;;;;22.93;58.79;100864.00;5013766;28;20434;-60
2021/07/28 07:19:41;;;;;;;5.78;2.80;;;;;;;22.96;58.83;100854.88;5013180;28;20535;-59
2021/07/28 07:22:06;;;;;;;5.95;2.90;;;;;;;22.97;58.88;100864.50;5013866;28;20018;-59
2021/07/28 07:24:32;;;;;;;5.72;2.90;;;;;;;22.98;59.13;100856.38;5013580;28;20434;-63
2021/07/28 07:26:57;;;;;;;4.57;2.70;;;;;;;22.99;59.20;100862.56;5013228;28;20046;-57
2021/07/28 07:29:23;;;;;;;5.53;2.90;;;;;;;22.97;59.14;100860.06;5013558;28;20033;-58
2021/07/28 07:31:48;;;;;;;5.30;2.90;;;;;;;22.99;59.20;100867.88;5013942;28;20448;-58
2021/07/28 07:34:13;;;;;;;5.07;2.70;;;;;;;22.99;59.30;100870.53;5013122;28;20061;-59
2021/07/28 07:36:39;;;;;;;4.70;2.55;;;;;;;22.97;58.99;100869.81;5012977;28;20061;-58
2021/07/28 07:39:05;;;;;;;5.20;2.47;;;;;;;22.98;59.40;100867.00;5013473;28;20030;-60
2021/07/28 07:41:31;;;;;;;5.78;2.92;;;;;;;22.99;59.02;100860.72;5012378;28;20057;-64
2021/07/28 07:43:57;;;;;;;4.53;2.70;;;;;;;22.99;58.81;100862.56;5013586;28;20029;-63
2021/07/28 07:46:23;;;;;;;5.65;2.40;;;;;;;22.98;59.06;100866.19;5012815;28;20026;-58
2021/07/28 07:48:48;;;;;;;4.88;2.60;;;;;;;23.01;58.79;100865.88;5012810;28;20034;-60
2021/07/28 07:51:14;;;;;;;5.13;2.50;;;;;;;23.03;58.92;100869.19;5013521;28;20049;-59
2021/07/28 07:53:39;;;;;;;3.90;2.33;;;;;;;23.04;59.00;100868.22;5013135;28;20067;-58
2021/07/28 07:56:08;;;;;;;7.85;3.05;;;;;;;23.09;58.99;100857.16;5012505;28;20072;-59
2021/07/28 07:58:34;;;;;;;4.80;2.67;;;;;;;23.11;58.98;100855.16;5012938;28;20025;-59
2021/07/28 08:01:05;;;;;;;4.22;2.28;;;;;;;23.12;58.47;100862.16;5013154;28;20048;-59
2021/07/28 08:03:30;;;;;;;6.97;2.60;;;;;;;23.14;58.48;100855.69;5012007;28;20022;-60
2021/07/28 08:05:56;;;;;;;4.73;2.40;;;;;;;23.16;58.74;100860.84;5012967;28;20048;-58
2021/07/28 08:08:21;;;;;;;4.90;2.67;;;;;;;23.18;58.78;100859.69;5012655;28;20307;-58
2021/07/28 08:10:46;;;;;;;4.80;2.47;;;;;;;23.21;58.45;100844.41;5012079;28;20279;-59
2021/07/28 08:13:11;;;;;;;5.43;2.30;;;;;;;23.22;58.55;100848.75;5012945;28;20313;-58
2021/07/28 08:15:37;;;;;;;4.50;2.10;;;;;;;23.21;58.58;100847.94;5012570;28;20026;-58
2021/07/28 08:18:03;;;;;;;6.20;2.23;;;;;;;23.22;58.23;100851.41;5012002;28;20381;-59
2021/07/28 08:20:29;;;;;;;5.50;2.40;;;;;;;23.23;58.36;100853.91;5012606;28;20283;-59
2021/07/28 08:22:54;;;;;;;4.32;2.33;;;;;;;23.24;58.35;100844.97;5012022;28;20352;-59
2021/07/28 08:25:20;;;;;;;4.13;2.22;;;;;;;23.24;58.58;100858.25;5012770;28;20047;-60
2021/07/28 08:27:47;;;;;;;5.35;2.40;;;;;;;23.24;58.22;100850.28;5013046;28;20022;-59
2021/07/28 08:30:13;;;;;;;4.40;2.38;;;;;;;23.18;58.06;100849.06;5012176;28;20026;-63
2021/07/28 08:32:39;;;;;;;4.70;2.40;;;;;;;23.25;58.32;100856.41;5012562;28;20044;-61
2021/07/28 08:35:14;;;;;;;7.25;2.72;;;;;;;23.22;58.61;100851.41;5012762;28;20018;-58
2021/07/28 08:37:40;;;;;;;4.07;2.20;;;;;;;23.26;58.13;100863.41;5011951;28;20037;-58
2021/07/28 08:40:09;;;;;;;5.47;2.40;;;;;;;23.25;58.33;100856.41;5011706;28;20113;-59
2021/07/28 08:42:35;;;;;;;4.68;2.20;;;;;;;23.25;58.53;100853.75;5012090;28;20188;-59
2021/07/28 08:45:01;;;;;;;4.75;2.17;;;;;;;23.25;58.38;100864.38;5013054;28;20021;-60
2021/07/28 08:47:26;;;;;;;3.70;2.20;;;;;;;23.23;58.19;100864.53;5012242;28;20018;-61
2021/07/28 08:49:52;;;;;;;4.40;1.98;;;;;;;23.25;57.85;100845.78;5012841;28;20041;-61
2021/07/28 08:52:19;;;;;;;4.07;1.95;;;;;;;23.27;58.13;100854.41;5010893;28;20481;-60
2021/07/28 08:54:44;;;;;;;6.65;2.38;;;;;;;23.25;57.91;100849.25;5012639;28;20033;-59
2021/07/28 08:57:12;;;;;;;4.93;2.20;;;;;;;23.25;57.89;100856.41;5013539;28;20389;-58
2021/07/28 08:59:38;;;;;;;5.78;2.17;;;;;;;23.24;58.27;100860.91;5015528;28;20116;-60
2021/07/28 09:02:03;;;;;;;4.60;1.92;;;;;;;23.25;58.20;100851.09;5016475;28;20057;-61
2021/07/28 09:04:29;;;;;;;4.40;1.98;;;;;;;23.22;57.84;100843.44;5016133;28;20060;-61
2021/07/28 09:06:55;;;;;;;3.55;1.80;;;;;;;23.24;58.06;100850.28;5015696;28;20088;-59
2021/07/28 09:09:21;;;;;;;4.90;2.13;;;;;;;23.24;57.78;100854.75;5016277;28;20018;-61
2021/07/28 09:11:57;;;;;;;4.10;2.05;;;;;;;23.23;57.67;100851.25;5016448;28;20092;-59
2021/07/28 09:14:26;;;;;;;4.95;1.90;;;;;;;23.23;57.67;100850.44;5015889;28;20022;-59
2021/07/28 09:16:52;;;;;;;4.35;2.10;;;;;;;23.21;57.96;100850.59;5016152;28;20488;-59
2021/07/28 09:19:40;;;;;;;3.25;1.83;;;;;;;23.25;57.66;100867.06;5014063;28;20054;-60
2021/07/28 09:22:10;;;;;;;4.10;1.90;;;;;;;23.25;57.92;100848.44;5016265;28;20033;-59
2021/07/28 09:24:36;;;;;;;7.13;2.83;;;;;;;23.26;58.06;100853.59;5015617;28;20401;-59
2021/07/28 09:27:02;;;;;;;4.65;2.13;;;;;;;23.25;57.66;100845.78;5015188;28;20377;-60
2021/07/28 09:29:28;;;;;;;4.18;2.08;;;;;;;23.27;57.80;100846.44;5015714;28;20029;-59
2021/07/28 09:32:08;;;;;;;4.00;1.83;;;;;;;23.33;57.51;100859.94;5016681;28;20430;-59
2021/07/28 09:34:35;;;;;;;3.78;1.90;;;;;;;23.32;57.92;100850.31;5015245;28;20018;-60
2021/07/28 09:37:17;;;;;;;4.07;2.03;;;;;;;23.35;57.88;100846.47;5016521;28;20017;-58
2021/07/28 09:39:48;;;;;;;4.00;1.95;;;;;;;23.36;57.70;100854.28;5015992;28;20033;-59
2021/07/28 09:42:18;;;;;;;4.22;1.90;;;;;;;23.36;57.66;100850.81;5014944;28;20044;-59
2021/07/28 09:44:55;;;;;;;5.25;2.50;;;;;;;23.36;57.57;100851.63;5016022;28;20029;-59
2021/07/28 09:47:23;;;;;;;3.53;1.80;;;;;;;23.29;57.32;100845.31;5014909;28;20022;-59
2021/07/28 09:49:50;;;;;;;4.53;1.75;;;;;;;23.34;57.55;100858.13;5015781;28;20492;-59
2021/07/28 09:52:33;;;;;;;5.70;2.60;;;;;;;23.31;57.47;100863.75;5014541;28;20443;-60
2021/07/28 09:54:59;;;;;;;4.47;1.90;;;;;;;23.28;57.29;100864.06;5014729;28;20036;-60
2021/07/28 09:57:26;;;;;;;3.83;1.92;;;;;;;23.29;57.04;100845.31;5015131;28;20069;-59
2021/07/28 10:00:04;;;;;;;4.72;1.90;;;;;;;23.28;56.90;100856.91;5015658;28;20029;-59
2021/07/28 10:02:29;;;;;;;6.53;1.90;;;;;;;23.28;56.76;100862.25;5014525;28;20114;-60
2021/07/28 10:04:55;;;;;;;3.97;1.55;;;;;;;23.29;56.76;100850.63;5015388;28;20080;-60
2021/07/28 10:07:22;;;;;;;4.53;2.03;;;;;;;23.32;57.09;100852.97;5015373;28;20037;-60
2021/07/28 10:10:07;;;;;;;3.72;1.77;;;;;;;23.31;56.87;100861.09;5015245;28;20030;-59
2021/07/28 10:12:36;;;;;;;5.10;1.98;;;;;;;23.31;56.91;100855.78;5015660;28;20028;-58
2021/07/28 10:15:02;;;;;;;5.03;1.88;;;;;;;23.29;56.93;100855.09;5015333;28;20040;-58
2021/07/28 10:17:30;;;;;;;3.90;1.88;;;;;;;23.28;56.57;100856.09;5013950;28;20092;-59
2021/07/28 10:19:56;;;;;;;4.18;1.80;;;;;;;23.26;56.66;100855.44;5015270;28;20484;-59
2021/07/28 10:22:22;;;;;;;3.30;1.70;;;;;;;23.22;56.55;100838.13;5014271;28;20050;-60
2021/07/28 10:24:48;;;;;;;3.53;1.52;;;;;;;23.30;56.61;100848.78;5015285;28;20466;-59
2021/07/28 10:27:15;;;;;;;4.25;1.70;;;;;;;23.31;56.57;100845.16;5014938;28;20025;-59
2021/07/28 10:29:44;;;;;;;4.03;1.67;;;;;;;23.28;56.71;100843.63;5013987;28;20040;-59
2021/07/28 10:32:48;;;;;;;3.67;1.98;;;;;;;23.26;56.17;100850.13;5014685;28;20026;-60
2021/07/28 10:35:19;;;;;;;4.47;1.80;;;;;;;23.30;56.35;100852.28;5014272;28;20576;-62
2021/07/28 10:37:44;;;;;;;5.90;1.65;;;;;;;23.30;56.19;100854.09;5013849;28;20112;-61
2021/07/28 10:40:34;;;;;;;4.50;1.60;;;;;;;23.31;56.14;100855.78;5014855;28;20050;-61
2021/07/28 10:43:02;;;;;;;4.00;1.58;;;;;;;23.32;56.29;100858.28;5014451;28;20481;-62
2021/07/28 10:45:54;;;;;;;5.97;1.50;;;;;;;23.35;55.91;100857.97;5013865;28;20034;-62
2021/07/28 10:48:49;;;;;;;4.18;1.60;;;;;;;23.36;55.82;100858.78;5014096;28;20112;-60
2021/07/28 10:51:33;;;;;;;;;;;;;;;23.35;55.93;100847.34;5013733;28;20041;-61
2021/07/28 10:53:58;;;;;;;4.00;1.80;;;;;;;23.38;55.46;100862.13;5014294;28;20284;-62
2021/07/28 10:56:23;;;;;;;3.08;1.73;;;;;;;23.39;55.77;100853.16;5013875;28;20025;-61
2021/07/28 10:58:49;;;;;;;3.83;1.47;;;;;;;23.33;55.39;100843.97;5013521;28;20144;-60
2021/07/28 11:01:14;;;;;;;5.50;1.80;;;;;;;23.43;55.43;100857.19;5013970;28;20895;-61
2021/07/28 11:03:39;;;;;;;5.38;1.80;;;;;;;23.41;55.49;100845.03;5014325;28;20037;-59
2021/07/28 11:06:20;;;;;;;4.45;1.65;;;;;;;23.43;55.81;100843.03;5013481;28;20025;-61
2021/07/28 11:08:45;;;;;;;4.82;1.58;;;;;;;23.45;55.51;100851.66;5013949;28;20058;-59
2021/07/28 11:11:20;;;;;;;4.90;1.70;;;;;;;23.46;55.78;100854.16;5013942;28;20096;-60
2021/07/28 11:13:46;;;;;;;2.83;1.52;;;;;;;23.46;55.71;100848.03;5013417;28;20381;-61
2021/07/28 11:16:11;;;;;;;3.63;1.60;;;;;;;23.49;55.67;100851.19;5014191;28;20102;-62
2021/07/28 11:18:48;;;;;;;4.45;1.70;;;;;;;23.51;55.69;100857.22;5014988;28;20026;-60
2021/07/28 11:21:17;;;;;;;3.22;1.42;;;;;;;23.51;55.71;100846.56;5014931;28;20022;-74
2021/07/28 11:23:48;;;;;;;4.68;1.60;;;;;;;23.52;55.30;100856.19;5014657;28;20026;-61
2021/07/28 11:26:25;;;;;;;3.17;1.50;;;;;;;23.46;55.09;100854.16;5013570;28;20061;-60